sensor_id;sensor_type;location;lat;lon;timestamp;P1;durP1;ratioP1;P2;durP2;ratioP2
49237;SDS011;35069;47.906;1.892;2022-09-06T06:01:04;8.38;;;3.13;;
49237;SDS011;35069;47.906;1.892;2022-09-06T06:04:01;5.07;;;3.92;;
49237;SDS011;35069;47.906;1.892;2022-09-06T06:06:32;8.27;;;3.60;;
49237;SDS011;35069;47.906;1.892;2022-09-06T06:08:58;10.73;;;3.88;;
49237;SDS011;35069;47.906;1.892;2022-09-06T06:11:24;5.90;;;3.47;;
49237;SDS011;35069;47.906;1.892;2022-09-06T06:13:50;4.20;;;3.80;;
49237;SDS011;35069;47.906;1.892;2022-09-06T06:16:17;9.93;;;3.38;;
49237;SDS011;35069;47.906;1.892;2022-09-06T06:18:44;11.20;;;3.78;;
49237;SDS011;35069;47.906;1.892;2022-09-06T06:21:14;4.20;;;3.13;;
49237;SDS011;35069;47.906;1.892;2022-09-06T06:23:53;4.05;;;3.65;;
49237;SDS011;35069;47.906;1.892;2022-09-06T06:26:22;4.47;;;2.72;;
49237;SDS011;35069;47.906;1.892;2022-09-06T06:28:48;6.68;;;3.15;;
49237;SDS011;35069;47.906;1.892;2022-09-06T06:31:14;4.55;;;3.00;;
49237;SDS011;35069;47.906;1.892;2022-09-06T06:33:40;7.57;;;3.20;;
49237;SDS011;35069;47.906;1.892;2022-09-06T06:36:17;9.60;;;3.20;;
49237;SDS011;35069;47.906;1.892;2022-09-06T06:38:47;7.60;;;3.15;;
49237;SDS011;35069;47.906;1.892;2022-09-06T06:41:16;6.30;;;3.15;;
49237;SDS011;35069;47.906;1.892;2022-09-06T06:43:43;11.45;;;3.70;;
49237;SDS011;35069;47.906;1.892;2022-09-06T06:46:10;7.38;;;3.40;;
49237;SDS011;35069;47.906;1.892;2022-09-06T06:48:40;3.72;;;2.85;;
49237;SDS011;35069;47.906;1.892;2022-09-06T06:51:07;5.95;;;3.50;;
49237;SDS011;35069;47.906;1.892;2022-09-06T06:53:34;5.90;;;3.30;;
49237;SDS011;35069;47.906;1.892;2022-09-06T06:55:59;8.90;;;3.63;;
49237;SDS011;35069;47.906;1.892;2022-09-06T06:58:25;7.60;;;3.28;;
49237;SDS011;35069;47.906;1.892;2022-09-06T15:02:02;2.92;;;1.45;;
49237;SDS011;35069;47.906;1.892;2022-09-06T15:04:28;6.03;;;1.42;;
49237;SDS011;35069;47.906;1.892;2022-09-06T15:06:53;1.27;;;1.17;;
49237;SDS011;35069;47.906;1.892;2022-09-06T15:09:19;2.70;;;1.45;;
49237;SDS011;35069;47.906;1.892;2022-09-06T15:11:46;2.72;;;1.20;;
49237;SDS011;35069;47.906;1.892;2022-09-06T15:14:18;6.97;;;1.63;;
49237;SDS011;35069;47.906;1.892;2022-09-06T15:16:45;2.00;;;1.50;;
49237;SDS011;35069;47.906;1.892;2022-09-06T15:19:12;2.30;;;1.50;;
49237;SDS011;35069;47.906;1.892;2022-09-06T15:21:37;1.85;;;1.05;;
49237;SDS011;35069;47.906;1.892;2022-09-06T15:24:04;6.82;;;1.73;;
49237;SDS011;35069;47.906;1.892;2022-09-06T15:26:30;4.05;;;1.60;;
49237;SDS011;35069;47.906;1.892;2022-09-06T15:28:58;2.55;;;1.75;;
49237;SDS011;35069;47.906;1.892;2022-09-06T15:31:24;3.95;;;1.40;;
49237;SDS011;35069;47.906;1.892;2022-09-06T15:33:51;6.15;;;1.95;;
49237;SDS011;35069;47.906;1.892;2022-09-06T15:36:16;3.13;;;1.55;;
49237;SDS011;35069;47.906;1.892;2022-09-06T15:38:45;1.55;;;1.17;;
49237;SDS011;35069;47.906;1.892;2022-09-06T15:41:14;6.65;;;2.10;;
49237;SDS011;35069;47.906;1.892;2022-09-06T15:43:43;3.95;;;1.63;;
49237;SDS011;35069;47.906;1.892;2022-09-06T15:46:11;3.08;;;1.40;;
49237;SDS011;35069;47.906;1.892;2022-09-06T15:48:41;3.92;;;1.20;;
49237;SDS011;35069;47.906;1.892;2022-09-06T15:51:09;4.22;;;2.33;;
49237;SDS011;35069;47.906;1.892;2022-09-06T15:53:36;4.70;;;1.70;;
49237;SDS011;35069;47.906;1.892;2022-09-06T15:56:02;3.47;;;1.48;;
49237;SDS011;35069;47.906;1.892;2022-09-06T15:58:29;5.55;;;3.00;;
49237;SDS011;35069;47.906;1.892;2022-09-06T16:01:02;2.92;;;1.95;;
49237;SDS011;35069;47.906;1.892;2022-09-06T16:03:33;3.80;;;1.70;;
49237;SDS011;35069;47.906;1.892;2022-09-06T16:06:11;2.00;;;1.83;;
49237;SDS011;35069;47.906;1.892;2022-09-06T16:08:40;4.10;;;1.35;;
49237;SDS011;35069;47.906;1.892;2022-09-06T16:11:06;3.90;;;1.75;;
49237;SDS011;35069;47.906;1.892;2022-09-06T16:13:35;2.60;;;1.48;;
49237;SDS011;35069;47.906;1.892;2022-09-06T16:16:03;1.70;;;1.35;;
49237;SDS011;35069;47.906;1.892;2022-09-06T16:18:31;7.10;;;1.55;;
49237;SDS011;35069;47.906;1.892;2022-09-06T16:21:05;2.78;;;1.55;;
49237;SDS011;35069;47.906;1.892;2022-09-06T16:23:36;2.70;;;1.17;;
49237;SDS011;35069;47.906;1.892;2022-09-06T16:26:03;3.05;;;1.67;;
49237;SDS011;35069;47.906;1.892;2022-09-06T16:28:30;4.88;;;1.95;;
49237;SDS011;35069;47.906;1.892;2022-09-06T16:31:00;5.45;;;1.92;;
49237;SDS011;35069;47.906;1.892;2022-09-06T16:33:28;7.35;;;1.55;;
49237;SDS011;35069;47.906;1.892;2022-09-06T16:35:57;11.38;;;1.85;;
49237;SDS011;35069;47.906;1.892;2022-09-06T16:38:28;6.50;;;1.35;;
49237;SDS011;35069;47.906;1.892;2022-09-06T16:40:55;3.67;;;1.50;;
49237;SDS011;35069;47.906;1.892;2022-09-06T16:43:23;4.50;;;1.45;;
49237;SDS011;35069;47.906;1.892;2022-09-06T16:45:56;1.75;;;0.73;;
49237;SDS011;35069;47.906;1.892;2022-09-06T16:48:23;2.90;;;1.00;;
49237;SDS011;35069;47.906;1.892;2022-09-06T16:50:49;3.75;;;0.80;;
49237;SDS011;35069;47.906;1.892;2022-09-06T16:53:15;4.00;;;1.17;;
49237;SDS011;35069;47.906;1.892;2022-09-06T16:55:41;1.25;;;1.20;;
49237;SDS011;35069;47.906;1.892;2022-09-06T16:58:06;3.65;;;0.98;;
49237;SDS011;35069;47.906;1.892;2022-09-06T17:00:32;2.00;;;0.85;;
49237;SDS011;35069;47.906;1.892;2022-09-06T17:02:58;2.50;;;0.95;;
49237;SDS011;35069;47.906;1.892;2022-09-06T17:05:24;1.77;;;0.73;;
49237;SDS011;35069;47.906;1.892;2022-09-06T17:07:50;4.95;;;1.50;;
49237;SDS011;35069;47.906;1.892;2022-09-06T17:10:16;0.73;;;0.65;;
49237;SDS011;35069;47.906;1.892;2022-09-06T17:12:49;1.50;;;0.82;;
49237;SDS011;35069;47.906;1.892;2022-09-06T17:15:34;1.85;;;0.60;;
49237;SDS011;35069;47.906;1.892;2022-09-06T17:18:18;5.07;;;0.80;;
49237;SDS011;35069;47.906;1.892;2022-09-06T17:20:57;1.33;;;1.05;;
49237;SDS011;35069;47.906;1.892;2022-09-06T17:23:34;2.00;;;1.25;;
49237;SDS011;35069;47.906;1.892;2022-09-06T17:26:12;1.20;;;0.80;;
49237;SDS011;35069;47.906;1.892;2022-09-06T17:34:09;0.80;;;0.80;;
49237;SDS011;35069;47.906;1.892;2022-09-06T17:36:53;1.73;;;1.02;;
49237;SDS011;35069;47.906;1.892;2022-09-06T17:39:22;1.25;;;0.73;;
49237;SDS011;35069;47.906;1.892;2022-09-06T17:41:51;2.22;;;1.20;;
49237;SDS011;35069;47.906;1.892;2022-09-06T17:44:24;1.15;;;1.00;;
49237;SDS011;35069;47.906;1.892;2022-09-06T17:46:58;4.20;;;2.03;;
49237;SDS011;35069;47.906;1.892;2022-09-06T17:49:24;2.28;;;1.23;;
49237;SDS011;35069;47.906;1.892;2022-09-06T17:51:51;2.58;;;1.20;;
49237;SDS011;35069;47.906;1.892;2022-09-06T17:54:16;2.75;;;1.30;;
49237;SDS011;35069;47.906;1.892;2022-09-06T17:56:44;2.85;;;1.55;;
49237;SDS011;35069;47.906;1.892;2022-09-06T17:59:10;4.38;;;1.52;;
49237;SDS011;35069;47.906;1.892;2022-09-06T18:01:38;2.67;;;1.20;;
49237;SDS011;35069;47.906;1.892;2022-09-06T18:04:05;3.60;;;1.25;;
49237;SDS011;35069;47.906;1.892;2022-09-06T18:06:32;2.42;;;1.35;;
49237;SDS011;35069;47.906;1.892;2022-09-06T18:09:02;2.28;;;1.55;;
49237;SDS011;35069;47.906;1.892;2022-09-06T18:11:31;2.38;;;1.42;;
49237;SDS011;35069;47.906;1.892;2022-09-06T18:13:58;4.30;;;1.20;;
49237;SDS011;35069;47.906;1.892;2022-09-06T18:16:26;7.53;;;1.95;;
49237;SDS011;35069;47.906;1.892;2022-09-06T18:18:54;5.45;;;1.10;;
49237;SDS011;35069;47.906;1.892;2022-09-06T18:21:21;2.33;;;1.40;;
49237;SDS011;35069;47.906;1.892;2022-09-06T18:23:48;3.08;;;1.33;;
49237;SDS011;35069;47.906;1.892;2022-09-06T18:26:15;4.25;;;1.52;;
49237;SDS011;35069;47.906;1.892;2022-09-06T18:28:41;7.25;;;1.75;;
49237;SDS011;35069;47.906;1.892;2022-09-06T18:31:09;2.55;;;1.13;;
49237;SDS011;35069;47.906;1.892;2022-09-06T18:33:36;1.35;;;1.25;;
49237;SDS011;35069;47.906;1.892;2022-09-06T18:36:05;7.38;;;2.03;;
49237;SDS011;35069;47.906;1.892;2022-09-06T18:38:33;4.60;;;2.60;;
49237;SDS011;35069;47.906;1.892;2022-09-06T18:41:01;5.25;;;1.60;;
49237;SDS011;35069;47.906;1.892;2022-09-06T18:43:35;5.35;;;1.35;;
49237;SDS011;35069;47.906;1.892;2022-09-06T18:46:07;6.35;;;2.25;;
49237;SDS011;35069;47.906;1.892;2022-09-06T18:48:34;2.70;;;1.35;;
49237;SDS011;35069;47.906;1.892;2022-09-06T18:51:04;3.10;;;2.13;;
49237;SDS011;35069;47.906;1.892;2022-09-06T18:53:38;7.38;;;2.17;;
49237;SDS011;35069;47.906;1.892;2022-09-06T18:56:08;4.03;;;1.33;;
49237;SDS011;35069;47.906;1.892;2022-09-06T18:58:34;3.88;;;2.17;;
49237;SDS011;35069;47.906;1.892;2022-09-06T19:01:04;4.60;;;1.60;;
49237;SDS011;35069;47.906;1.892;2022-09-06T19:03:32;3.25;;;1.38;;
49237;SDS011;35069;47.906;1.892;2022-09-06T19:06:07;4.05;;;1.40;;
49237;SDS011;35069;47.906;1.892;2022-09-06T19:08:37;5.93;;;1.30;;
49237;SDS011;35069;47.906;1.892;2022-09-06T19:11:07;2.97;;;1.13;;
49237;SDS011;35069;47.906;1.892;2022-09-06T19:13:35;4.38;;;1.17;;
49237;SDS011;35069;47.906;1.892;2022-09-06T19:16:03;4.38;;;1.50;;
49237;SDS011;35069;47.906;1.892;2022-09-06T19:18:29;3.20;;;1.20;;
49237;SDS011;35069;47.906;1.892;2022-09-06T19:23:26;7.53;;;1.42;;
49237;SDS011;35069;47.906;1.892;2022-09-06T19:28:23;3.83;;;0.95;;
49237;SDS011;35069;47.906;1.892;2022-09-06T19:30:50;4.95;;;1.25;;
49237;SDS011;35069;47.906;1.892;2022-09-06T19:33:16;3.97;;;1.00;;
49237;SDS011;35069;47.906;1.892;2022-09-06T19:35:43;4.40;;;1.23;;
49237;SDS011;35069;47.906;1.892;2022-09-06T19:38:08;1.60;;;1.05;;
49237;SDS011;35069;47.906;1.892;2022-09-06T19:40:35;3.47;;;1.65;;
49237;SDS011;35069;47.906;1.892;2022-09-06T19:43:01;3.55;;;1.67;;
49237;SDS011;35069;47.906;1.892;2022-09-06T19:45:27;3.00;;;2.22;;
49237;SDS011;35069;47.906;1.892;2022-09-06T19:47:53;5.10;;;1.58;;
49237;SDS011;35069;47.906;1.892;2022-09-06T19:50:19;3.50;;;1.58;;
49237;SDS011;35069;47.906;1.892;2022-09-06T19:52:45;6.35;;;1.30;;
49237;SDS011;35069;47.906;1.892;2022-09-06T19:55:10;6.88;;;1.17;;
49237;SDS011;35069;47.906;1.892;2022-09-06T19:57:36;4.28;;;0.98;;
49237;SDS011;35069;47.906;1.892;2022-09-06T20:00:03;5.20;;;1.35;;
49237;SDS011;35069;47.906;1.892;2022-09-06T20:02:29;2.75;;;1.00;;
49237;SDS011;35069;47.906;1.892;2022-09-06T20:04:55;5.25;;;1.00;;
49237;SDS011;35069;47.906;1.892;2022-09-06T20:07:20;4.35;;;0.98;;
49237;SDS011;35069;47.906;1.892;2022-09-06T20:09:46;2.63;;;0.93;;
49237;SDS011;35069;47.906;1.892;2022-09-06T20:12:11;3.63;;;1.52;;
49237;SDS011;35069;47.906;1.892;2022-09-06T20:14:37;5.20;;;1.15;;
49237;SDS011;35069;47.906;1.892;2022-09-06T20:17:02;1.98;;;1.00;;
49237;SDS011;35069;47.906;1.892;2022-09-06T20:19:28;4.97;;;1.20;;
49237;SDS011;35069;47.906;1.892;2022-09-06T20:21:54;3.85;;;0.95;;
49237;SDS011;35069;47.906;1.892;2022-09-06T20:24:19;3.65;;;0.95;;
49237;SDS011;35069;47.906;1.892;2022-09-06T20:26:45;7.43;;;1.10;;
49237;SDS011;35069;47.906;1.892;2022-09-06T20:29:11;2.33;;;1.35;;
49237;SDS011;35069;47.906;1.892;2022-09-06T20:31:37;1.67;;;0.77;;
49237;SDS011;35069;47.906;1.892;2022-09-06T20:34:03;3.78;;;0.90;;
49237;SDS011;35069;47.906;1.892;2022-09-06T20:36:30;2.15;;;1.08;;
49237;SDS011;35069;47.906;1.892;2022-09-06T20:38:56;1.83;;;1.10;;
49237;SDS011;35069;47.906;1.892;2022-09-06T20:41:22;0.95;;;0.82;;
49237;SDS011;35069;47.906;1.892;2022-09-06T20:43:52;3.85;;;1.27;;
49237;SDS011;35069;47.906;1.892;2022-09-06T20:46:19;2.35;;;1.00;;
49237;SDS011;35069;47.906;1.892;2022-09-06T20:48:47;4.57;;;1.20;;
49237;SDS011;35069;47.906;1.892;2022-09-06T20:51:14;2.53;;;1.10;;
49237;SDS011;35069;47.906;1.892;2022-09-06T20:53:43;3.20;;;0.93;;
49237;SDS011;35069;47.906;1.892;2022-09-06T20:56:10;4.80;;;1.00;;
49237;SDS011;35069;47.906;1.892;2022-09-06T20:58:37;4.50;;;1.02;;
49237;SDS011;35069;47.906;1.892;2022-09-06T21:01:05;5.53;;;1.20;;
49237;SDS011;35069;47.906;1.892;2022-09-06T21:03:34;1.70;;;0.90;;
49237;SDS011;35069;47.906;1.892;2022-09-06T21:06:01;2.08;;;0.93;;
49237;SDS011;35069;47.906;1.892;2022-09-06T21:08:27;3.85;;;1.42;;
49237;SDS011;35069;47.906;1.892;2022-09-06T21:10:59;4.28;;;1.67;;
49237;SDS011;35069;47.906;1.892;2022-09-06T21:13:26;2.78;;;1.75;;
49237;SDS011;35069;47.906;1.892;2022-09-06T21:15:52;4.50;;;1.20;;
49237;SDS011;35069;47.906;1.892;2022-09-06T21:18:19;3.70;;;0.98;;
49237;SDS011;35069;47.906;1.892;2022-09-06T21:21:19;3.58;;;1.27;;
49237;SDS011;35069;47.906;1.892;2022-09-06T21:23:37;4.53;;;1.30;;
49237;SDS011;35069;47.906;1.892;2022-09-06T21:28:34;2.03;;;0.90;;
49237;SDS011;35069;47.906;1.892;2022-09-06T21:33:34;2.85;;;1.20;;
49237;SDS011;35069;47.906;1.892;2022-09-06T21:36:02;2.08;;;1.13;;
49237;SDS011;35069;47.906;1.892;2022-09-06T21:38:33;3.17;;;1.25;;
49237;SDS011;35069;47.906;1.892;2022-09-06T21:41:02;2.45;;;1.27;;
49237;SDS011;35069;47.906;1.892;2022-09-06T21:43:28;3.78;;;1.17;;
49237;SDS011;35069;47.906;1.892;2022-09-06T21:45:54;2.50;;;1.25;;
49237;SDS011;35069;47.906;1.892;2022-09-06T21:48:22;4.07;;;1.15;;
49237;SDS011;35069;47.906;1.892;2022-09-06T21:50:48;3.20;;;1.17;;
49237;SDS011;35069;47.906;1.892;2022-09-06T21:53:14;4.80;;;1.20;;
49237;SDS011;35069;47.906;1.892;2022-09-06T21:55:40;4.32;;;1.20;;
49237;SDS011;35069;47.906;1.892;2022-09-06T21:58:06;5.10;;;2.05;;
